EGMD - Lydd Airport
Distance from station: E 5mi, 14km
Updated: 06/19/2018 10:20pm
Overcast
Overcast
 Wind from SW
Wind: SW 14 mph , 22 km/h
Temperature: 59°F , 15°C
Dew Point: 59°F , 15°C
Humidity: 100%
Barometer: 30.18 inHg , 1022 hPa
Clouds: Overcast
Visibility: 5 miles , 8 km
Cloud details: Overcast 200 ft
2018/06/20 05:20 EGMD 200520Z AUTO 23012KT 8000 OVC002/// 15/15 Q1022